Gardena, North Dakota
Current Conditions -  °F | °C
As of 3:55 AM on Sunday 25 Jan 2015 (Local Time) from KRUG Reporting Station
Overcast Overcast  
Wind Chill:   Ceiling: 1000
Heat Index: 16°   Visibility: 10mi
Dew Point: 14°   Wind: 10mph
Humidity: 93%   Direction: 80°E
Pressure: 29.96"   Gusts: NA
Location:  48.6836°N, 100.4843°W
Report Text: KRUG 250955Z AUTO 08009KT 10SM OVC010 M09/M10 A2996 RMK AO2
Loading
Personal Weather Stations






























Interactive Weather Map New forecast layout! Learn more

10-Day Weather Forecast

Advertisements
Track Severe Weather on mobile